sensor_id;sensor_type;location;lat;lon;timestamp;P1;durP1;ratioP1;P2;durP2;ratioP2
4961;SDS011;2496;52.468;13.342;2023-01-23T00:01:23;22.90;;;13.53;;
4961;SDS011;2496;52.468;13.342;2023-01-23T00:04:12;21.00;;;12.67;;
4961;SDS011;2496;52.468;13.342;2023-01-23T00:06:56;27.83;;;14.30;;
4961;SDS011;2496;52.468;13.342;2023-01-23T00:09:23;25.63;;;15.03;;
4961;SDS011;2496;52.468;13.342;2023-01-23T00:11:50;27.87;;;15.63;;
4961;SDS011;2496;52.468;13.342;2023-01-23T00:14:17;25.77;;;13.07;;
4961;SDS011;2496;52.468;13.342;2023-01-23T00:16:44;26.77;;;14.20;;
4961;SDS011;2496;52.468;13.342;2023-01-23T00:19:13;24.30;;;13.33;;
4961;SDS011;2496;52.468;13.342;2023-01-23T00:21:40;24.73;;;13.67;;
4961;SDS011;2496;52.468;13.342;2023-01-23T00:24:08;25.27;;;14.57;;
4961;SDS011;2496;52.468;13.342;2023-01-23T00:26:37;24.80;;;14.33;;
4961;SDS011;2496;52.468;13.342;2023-01-23T00:29:04;29.03;;;15.00;;
4961;SDS011;2496;52.468;13.342;2023-01-23T00:31:32;22.30;;;14.00;;
4961;SDS011;2496;52.468;13.342;2023-01-23T00:34:02;27.77;;;15.53;;
4961;SDS011;2496;52.468;13.342;2023-01-23T00:36:32;24.93;;;14.33;;
4961;SDS011;2496;52.468;13.342;2023-01-23T00:39:01;25.83;;;14.47;;
4961;SDS011;2496;52.468;13.342;2023-01-23T00:41:30;29.17;;;15.43;;
4961;SDS011;2496;52.468;13.342;2023-01-23T00:43:58;21.83;;;13.07;;
4961;SDS011;2496;52.468;13.342;2023-01-23T00:46:25;26.13;;;14.27;;
4961;SDS011;2496;52.468;13.342;2023-01-23T00:48:52;29.00;;;15.23;;
4961;SDS011;2496;52.468;13.342;2023-01-23T00:51:19;27.83;;;14.70;;
4961;SDS011;2496;52.468;13.342;2023-01-23T00:53:48;24.77;;;15.50;;
4961;SDS011;2496;52.468;13.342;2023-01-23T00:56:15;24.23;;;13.40;;
4961;SDS011;2496;52.468;13.342;2023-01-23T00:58:42;25.40;;;14.80;;
4961;SDS011;2496;52.468;13.342;2023-01-23T01:01:09;25.43;;;13.50;;
4961;SDS011;2496;52.468;13.342;2023-01-23T01:03:37;29.13;;;15.27;;
4961;SDS011;2496;52.468;13.342;2023-01-23T01:06:05;25.17;;;13.30;;
4961;SDS011;2496;52.468;13.342;2023-01-23T01:08:32;28.83;;;14.57;;
4961;SDS011;2496;52.468;13.342;2023-01-23T01:11:01;30.50;;;14.80;;
4961;SDS011;2496;52.468;13.342;2023-01-23T01:13:28;26.80;;;14.53;;
4961;SDS011;2496;52.468;13.342;2023-01-23T01:15:56;25.63;;;14.70;;
4961;SDS011;2496;52.468;13.342;2023-01-23T01:18:26;28.37;;;14.73;;
4961;SDS011;2496;52.468;13.342;2023-01-23T01:20:54;30.07;;;15.07;;
4961;SDS011;2496;52.468;13.342;2023-01-23T01:23:21;29.03;;;16.67;;
4961;SDS011;2496;52.468;13.342;2023-01-23T01:25:48;25.30;;;14.30;;
4961;SDS011;2496;52.468;13.342;2023-01-23T01:28:17;27.50;;;14.80;;
4961;SDS011;2496;52.468;13.342;2023-01-23T01:30:44;24.73;;;13.50;;
4961;SDS011;2496;52.468;13.342;2023-01-23T01:33:11;31.93;;;16.97;;
4961;SDS011;2496;52.468;13.342;2023-01-23T01:35:38;24.93;;;14.50;;
4961;SDS011;2496;52.468;13.342;2023-01-23T01:38:06;28.20;;;13.77;;
4961;SDS011;2496;52.468;13.342;2023-01-23T01:40:34;28.00;;;16.27;;
4961;SDS011;2496;52.468;13.342;2023-01-23T01:43:04;27.70;;;15.73;;
4961;SDS011;2496;52.468;13.342;2023-01-23T01:48:39;29.93;;;15.37;;
4961;SDS011;2496;52.468;13.342;2023-01-23T01:51:11;26.77;;;15.53;;
4961;SDS011;2496;52.468;13.342;2023-01-23T01:53:42;29.27;;;14.27;;
4961;SDS011;2496;52.468;13.342;2023-01-23T01:56:12;26.23;;;12.83;;
4961;SDS011;2496;52.468;13.342;2023-01-23T01:58:41;27.97;;;16.00;;
4961;SDS011;2496;52.468;13.342;2023-01-23T02:01:11;31.30;;;15.23;;
4961;SDS011;2496;52.468;13.342;2023-01-23T02:03:40;29.50;;;16.00;;
4961;SDS011;2496;52.468;13.342;2023-01-23T02:06:09;32.60;;;15.50;;
4961;SDS011;2496;52.468;13.342;2023-01-23T02:08:39;31.33;;;15.50;;
4961;SDS011;2496;52.468;13.342;2023-01-23T02:11:12;27.67;;;14.07;;
4961;SDS011;2496;52.468;13.342;2023-01-23T02:13:42;31.83;;;16.33;;
4961;SDS011;2496;52.468;13.342;2023-01-23T02:16:11;28.50;;;15.33;;
4961;SDS011;2496;52.468;13.342;2023-01-23T02:18:42;29.83;;;15.63;;
4961;SDS011;2496;52.468;13.342;2023-01-23T02:21:12;33.97;;;16.23;;
4961;SDS011;2496;52.468;13.342;2023-01-23T02:23:47;27.10;;;15.57;;
4961;SDS011;2496;52.468;13.342;2023-01-23T02:26:38;27.23;;;14.90;;
4961;SDS011;2496;52.468;13.342;2023-01-23T02:29:08;28.33;;;15.33;;
4961;SDS011;2496;52.468;13.342;2023-01-23T02:31:36;31.90;;;16.70;;
4961;SDS011;2496;52.468;13.342;2023-01-23T02:34:08;31.17;;;15.40;;
4961;SDS011;2496;52.468;13.342;2023-01-23T02:36:36;26.23;;;14.57;;
4961;SDS011;2496;52.468;13.342;2023-01-23T02:39:06;31.23;;;16.03;;
4961;SDS011;2496;52.468;13.342;2023-01-23T02:41:37;29.47;;;14.23;;
4961;SDS011;2496;52.468;13.342;2023-01-23T02:44:08;27.33;;;15.63;;
4961;SDS011;2496;52.468;13.342;2023-01-23T02:46:40;42.10;;;17.63;;
4961;SDS011;2496;52.468;13.342;2023-01-23T02:49:07;27.37;;;15.20;;
4961;SDS011;2496;52.468;13.342;2023-01-23T02:51:35;31.90;;;16.63;;
4961;SDS011;2496;52.468;13.342;2023-01-23T02:54:02;24.97;;;14.63;;
4961;SDS011;2496;52.468;13.342;2023-01-23T02:56:30;28.20;;;16.07;;
4961;SDS011;2496;52.468;13.342;2023-01-23T02:58:59;26.53;;;14.10;;
4961;SDS011;2496;52.468;13.342;2023-01-23T03:01:44;29.57;;;15.60;;
4961;SDS011;2496;52.468;13.342;2023-01-23T03:04:12;30.30;;;14.93;;
4961;SDS011;2496;52.468;13.342;2023-01-23T03:06:39;30.93;;;16.17;;
4961;SDS011;2496;52.468;13.342;2023-01-23T03:09:07;30.00;;;15.20;;
4961;SDS011;2496;52.468;13.342;2023-01-23T03:11:36;28.30;;;16.30;;
4961;SDS011;2496;52.468;13.342;2023-01-23T03:14:07;33.47;;;16.67;;
4961;SDS011;2496;52.468;13.342;2023-01-23T03:16:36;31.33;;;16.50;;
4961;SDS011;2496;52.468;13.342;2023-01-23T03:19:06;35.53;;;18.13;;
4961;SDS011;2496;52.468;13.342;2023-01-23T03:21:34;31.33;;;15.67;;
4961;SDS011;2496;52.468;13.342;2023-01-23T03:24:11;34.20;;;17.43;;
4961;SDS011;2496;52.468;13.342;2023-01-23T03:26:39;35.23;;;17.47;;
4961;SDS011;2496;52.468;13.342;2023-01-23T03:29:10;29.63;;;15.60;;
4961;SDS011;2496;52.468;13.342;2023-01-23T03:31:57;30.50;;;17.40;;
4961;SDS011;2496;52.468;13.342;2023-01-23T03:34:25;32.13;;;15.67;;
4961;SDS011;2496;52.468;13.342;2023-01-23T03:36:52;31.40;;;16.07;;
4961;SDS011;2496;52.468;13.342;2023-01-23T03:39:19;29.90;;;16.83;;
4961;SDS011;2496;52.468;13.342;2023-01-23T03:42:04;38.00;;;19.13;;
4961;SDS011;2496;52.468;13.342;2023-01-23T03:44:33;32.50;;;17.10;;
4961;SDS011;2496;52.468;13.342;2023-01-23T03:47:00;34.20;;;16.93;;
4961;SDS011;2496;52.468;13.342;2023-01-23T03:49:27;31.33;;;16.27;;
4961;SDS011;2496;52.468;13.342;2023-01-23T03:51:54;35.67;;;17.73;;
4961;SDS011;2496;52.468;13.342;2023-01-23T03:54:21;26.70;;;15.90;;
4961;SDS011;2496;52.468;13.342;2023-01-23T03:56:48;35.20;;;16.10;;
4961;SDS011;2496;52.468;13.342;2023-01-23T03:59:16;30.70;;;16.43;;
4961;SDS011;2496;52.468;13.342;2023-01-23T04:01:44;37.50;;;18.60;;
4961;SDS011;2496;52.468;13.342;2023-01-23T04:04:13;34.17;;;17.90;;
4961;SDS011;2496;52.468;13.342;2023-01-23T04:06:40;34.10;;;16.70;;
4961;SDS011;2496;52.468;13.342;2023-01-23T04:09:07;36.53;;;17.40;;
4961;SDS011;2496;52.468;13.342;2023-01-23T04:11:35;29.33;;;16.43;;
4961;SDS011;2496;52.468;13.342;2023-01-23T04:14:02;30.83;;;17.63;;
4961;SDS011;2496;52.468;13.342;2023-01-23T04:16:29;35.33;;;17.03;;
4961;SDS011;2496;52.468;13.342;2023-01-23T04:18:58;31.57;;;16.10;;
4961;SDS011;2496;52.468;13.342;2023-01-23T04:21:25;32.10;;;16.93;;
4961;SDS011;2496;52.468;13.342;2023-01-23T04:23:52;30.83;;;16.50;;
4961;SDS011;2496;52.468;13.342;2023-01-23T04:26:19;31.13;;;16.83;;
4961;SDS011;2496;52.468;13.342;2023-01-23T04:28:46;30.33;;;16.30;;
4961;SDS011;2496;52.468;13.342;2023-01-23T04:31:14;28.27;;;16.80;;
4961;SDS011;2496;52.468;13.342;2023-01-23T04:33:42;34.67;;;17.40;;
4961;SDS011;2496;52.468;13.342;2023-01-23T04:36:11;31.30;;;16.30;;
4961;SDS011;2496;52.468;13.342;2023-01-23T04:38:38;37.73;;;17.13;;
4961;SDS011;2496;52.468;13.342;2023-01-23T04:41:05;35.77;;;18.00;;
4961;SDS011;2496;52.468;13.342;2023-01-23T04:43:32;31.37;;;16.33;;
4961;SDS011;2496;52.468;13.342;2023-01-23T04:46:00;33.00;;;17.20;;
4961;SDS011;2496;52.468;13.342;2023-01-23T04:48:27;32.67;;;17.33;;
4961;SDS011;2496;52.468;13.342;2023-01-23T04:50:54;29.40;;;16.20;;
4961;SDS011;2496;52.468;13.342;2023-01-23T04:53:22;28.17;;;16.53;;
4961;SDS011;2496;52.468;13.342;2023-01-23T04:55:49;33.23;;;18.17;;
4961;SDS011;2496;52.468;13.342;2023-01-23T04:58:17;26.20;;;15.70;;
4961;SDS011;2496;52.468;13.342;2023-01-23T05:00:45;29.80;;;16.73;;
4961;SDS011;2496;52.468;13.342;2023-01-23T05:03:12;31.27;;;16.83;;
4961;SDS011;2496;52.468;13.342;2023-01-23T05:05:39;31.33;;;16.20;;
4961;SDS011;2496;52.468;13.342;2023-01-23T05:08:08;34.90;;;17.30;;
4961;SDS011;2496;52.468;13.342;2023-01-23T05:10:37;29.83;;;15.03;;
4961;SDS011;2496;52.468;13.342;2023-01-23T05:13:04;27.10;;;15.17;;
4961;SDS011;2496;52.468;13.342;2023-01-23T05:15:33;32.13;;;15.63;;
4961;SDS011;2496;52.468;13.342;2023-01-23T05:18:00;34.17;;;15.83;;
4961;SDS011;2496;52.468;13.342;2023-01-23T05:20:28;29.13;;;15.63;;
4961;SDS011;2496;52.468;13.342;2023-01-23T05:22:55;28.33;;;15.67;;
4961;SDS011;2496;52.468;13.342;2023-01-23T05:25:23;32.67;;;18.93;;
4961;SDS011;2496;52.468;13.342;2023-01-23T05:27:53;33.50;;;16.47;;
4961;SDS011;2496;52.468;13.342;2023-01-23T05:30:21;37.87;;;17.70;;
4961;SDS011;2496;52.468;13.342;2023-01-23T05:32:49;35.17;;;16.77;;
4961;SDS011;2496;52.468;13.342;2023-01-23T05:35:16;33.10;;;17.90;;
4961;SDS011;2496;52.468;13.342;2023-01-23T05:37:46;30.80;;;16.63;;
4961;SDS011;2496;52.468;13.342;2023-01-23T05:40:15;35.63;;;17.50;;
4961;SDS011;2496;52.468;13.342;2023-01-23T05:42:43;37.00;;;18.13;;
4961;SDS011;2496;52.468;13.342;2023-01-23T05:45:12;33.67;;;17.63;;
4961;SDS011;2496;52.468;13.342;2023-01-23T05:47:40;34.77;;;17.50;;
4961;SDS011;2496;52.468;13.342;2023-01-23T05:50:08;29.97;;;16.50;;
4961;SDS011;2496;52.468;13.342;2023-01-23T05:52:41;28.63;;;15.70;;
4961;SDS011;2496;52.468;13.342;2023-01-23T05:55:08;32.57;;;17.07;;
4961;SDS011;2496;52.468;13.342;2023-01-23T05:57:35;38.57;;;17.93;;
4961;SDS011;2496;52.468;13.342;2023-01-23T06:00:02;32.37;;;17.57;;
4961;SDS011;2496;52.468;13.342;2023-01-23T06:02:32;28.13;;;17.40;;
4961;SDS011;2496;52.468;13.342;2023-01-23T06:04:59;28.77;;;15.50;;
4961;SDS011;2496;52.468;13.342;2023-01-23T06:07:26;32.93;;;15.93;;
4961;SDS011;2496;52.468;13.342;2023-01-23T06:09:53;34.10;;;17.10;;
4961;SDS011;2496;52.468;13.342;2023-01-23T06:12:21;31.37;;;18.00;;
4961;SDS011;2496;52.468;13.342;2023-01-23T06:14:48;36.90;;;18.60;;
4961;SDS011;2496;52.468;13.342;2023-01-23T06:17:15;34.97;;;17.90;;
4961;SDS011;2496;52.468;13.342;2023-01-23T06:19:44;31.47;;;17.00;;
4961;SDS011;2496;52.468;13.342;2023-01-23T06:22:13;37.90;;;19.77;;
4961;SDS011;2496;52.468;13.342;2023-01-23T06:24:40;33.97;;;17.33;;
4961;SDS011;2496;52.468;13.342;2023-01-23T06:27:07;32.10;;;17.40;;
4961;SDS011;2496;52.468;13.342;2023-01-23T06:29:34;34.33;;;18.70;;
4961;SDS011;2496;52.468;13.342;2023-01-23T06:32:02;37.20;;;18.87;;
4961;SDS011;2496;52.468;13.342;2023-01-23T06:34:29;29.73;;;16.97;;
4961;SDS011;2496;52.468;13.342;2023-01-23T06:36:57;34.53;;;16.90;;
4961;SDS011;2496;52.468;13.342;2023-01-23T06:39:24;34.87;;;17.23;;
4961;SDS011;2496;52.468;13.342;2023-01-23T06:41:52;32.77;;;18.00;;
4961;SDS011;2496;52.468;13.342;2023-01-23T06:44:19;35.20;;;17.93;;
4961;SDS011;2496;52.468;13.342;2023-01-23T06:46:46;35.53;;;17.20;;
4961;SDS011;2496;52.468;13.342;2023-01-23T06:49:12;34.70;;;18.70;;
4961;SDS011;2496;52.468;13.342;2023-01-23T06:51:40;29.30;;;16.40;;
4961;SDS011;2496;52.468;13.342;2023-01-23T06:54:08;31.13;;;17.20;;
4961;SDS011;2496;52.468;13.342;2023-01-23T06:56:35;35.03;;;18.93;;
4961;SDS011;2496;52.468;13.342;2023-01-23T06:59:02;36.30;;;18.17;;
4961;SDS011;2496;52.468;13.342;2023-01-23T07:01:29;32.70;;;17.03;;
4961;SDS011;2496;52.468;13.342;2023-01-23T07:03:56;32.60;;;17.53;;
4961;SDS011;2496;52.468;13.342;2023-01-23T07:06:23;35.20;;;18.60;;
4961;SDS011;2496;52.468;13.342;2023-01-23T07:08:50;36.53;;;18.90;;
4961;SDS011;2496;52.468;13.342;2023-01-23T07:11:19;27.43;;;16.07;;
4961;SDS011;2496;52.468;13.342;2023-01-23T07:13:46;27.33;;;15.77;;
4961;SDS011;2496;52.468;13.342;2023-01-23T07:16:12;34.13;;;18.60;;
4961;SDS011;2496;52.468;13.342;2023-01-23T07:18:39;34.50;;;16.67;;
4961;SDS011;2496;52.468;13.342;2023-01-23T07:21:07;28.07;;;16.13;;
4961;SDS011;2496;52.468;13.342;2023-01-23T07:23:34;32.57;;;17.43;;
4961;SDS011;2496;52.468;13.342;2023-01-23T07:26:02;34.83;;;16.73;;
4961;SDS011;2496;52.468;13.342;2023-01-23T07:28:34;35.33;;;17.50;;
4961;SDS011;2496;52.468;13.342;2023-01-23T07:31:01;34.30;;;17.90;;
4961;SDS011;2496;52.468;13.342;2023-01-23T07:33:29;28.87;;;16.77;;
4961;SDS011;2496;52.468;13.342;2023-01-23T07:35:56;28.20;;;16.23;;
4961;SDS011;2496;52.468;13.342;2023-01-23T07:38:23;26.53;;;15.57;;
4961;SDS011;2496;52.468;13.342;2023-01-23T07:40:50;35.20;;;17.30;;
4961;SDS011;2496;52.468;13.342;2023-01-23T07:43:18;30.93;;;16.17;;
4961;SDS011;2496;52.468;13.342;2023-01-23T07:45:46;34.37;;;16.97;;
4961;SDS011;2496;52.468;13.342;2023-01-23T07:48:14;29.90;;;17.70;;
4961;SDS011;2496;52.468;13.342;2023-01-23T07:50:41;31.77;;;16.60;;
4961;SDS011;2496;52.468;13.342;2023-01-23T07:53:08;27.73;;;17.13;;
4961;SDS011;2496;52.468;13.342;2023-01-23T07:55:36;31.23;;;16.67;;
4961;SDS011;2496;52.468;13.342;2023-01-23T07:58:04;30.50;;;16.63;;
4961;SDS011;2496;52.468;13.342;2023-01-23T08:00:31;36.97;;;18.47;;
4961;SDS011;2496;52.468;13.342;2023-01-23T08:02:59;30.80;;;18.47;;
4961;SDS011;2496;52.468;13.342;2023-01-23T08:05:26;29.50;;;17.80;;
4961;SDS011;2496;52.468;13.342;2023-01-23T08:07:53;36.27;;;18.17;;
4961;SDS011;2496;52.468;13.342;2023-01-23T08:10:20;34.27;;;17.73;;
4961;SDS011;2496;52.468;13.342;2023-01-23T08:12:47;34.93;;;16.90;;
4961;SDS011;2496;52.468;13.342;2023-01-23T08:15:14;36.70;;;20.37;;
4961;SDS011;2496;52.468;13.342;2023-01-23T08:17:41;33.07;;;18.10;;
4961;SDS011;2496;52.468;13.342;2023-01-23T08:20:10;31.60;;;17.37;;
4961;SDS011;2496;52.468;13.342;2023-01-23T08:22:38;30.40;;;17.80;;
4961;SDS011;2496;52.468;13.342;2023-01-23T08:25:06;35.50;;;17.60;;
4961;SDS011;2496;52.468;13.342;2023-01-23T08:27:33;39.30;;;18.50;;
4961;SDS011;2496;52.468;13.342;2023-01-23T08:30:00;37.70;;;19.57;;
4961;SDS011;2496;52.468;13.342;2023-01-23T08:32:27;29.30;;;17.03;;
4961;SDS011;2496;52.468;13.342;2023-01-23T08:34:54;31.97;;;17.13;;
4961;SDS011;2496;52.468;13.342;2023-01-23T08:37:23;29.63;;;17.70;;
4961;SDS011;2496;52.468;13.342;2023-01-23T08:39:50;39.47;;;18.47;;
4961;SDS011;2496;52.468;13.342;2023-01-23T08:42:16;35.80;;;19.53;;
4961;SDS011;2496;52.468;13.342;2023-01-23T08:44:43;36.90;;;18.23;;
4961;SDS011;2496;52.468;13.342;2023-01-23T08:47:10;34.90;;;19.73;;
4961;SDS011;2496;52.468;13.342;2023-01-23T08:49:37;28.20;;;16.83;;
4961;SDS011;2496;52.468;13.342;2023-01-23T08:52:04;28.07;;;16.10;;
4961;SDS011;2496;52.468;13.342;2023-01-23T08:54:33;37.83;;;17.73;;
4961;SDS011;2496;52.468;13.342;2023-01-23T08:57:05;34.23;;;17.30;;
4961;SDS011;2496;52.468;13.342;2023-01-23T08:59:33;36.87;;;17.87;;
4961;SDS011;2496;52.468;13.342;2023-01-23T09:02:00;37.47;;;18.13;;
4961;SDS011;2496;52.468;13.342;2023-01-23T09:04:27;33.20;;;17.43;;
4961;SDS011;2496;52.468;13.342;2023-01-23T09:06:54;35.87;;;19.20;;
4961;SDS011;2496;52.468;13.342;2023-01-23T09:09:21;34.53;;;17.87;;
4961;SDS011;2496;52.468;13.342;2023-01-23T09:11:49;33.90;;;19.00;;
4961;SDS011;2496;52.468;13.342;2023-01-23T09:14:16;39.27;;;18.70;;
4961;SDS011;2496;52.468;13.342;2023-01-23T09:16:43;36.30;;;18.33;;
4961;SDS011;2496;52.468;13.342;2023-01-23T09:19:10;29.60;;;17.57;;
4961;SDS011;2496;52.468;13.342;2023-01-23T09:21:37;34.80;;;18.10;;
4961;SDS011;2496;52.468;13.342;2023-01-23T09:24:04;30.20;;;17.50;;
4961;SDS011;2496;52.468;13.342;2023-01-23T09:26:32;30.90;;;17.73;;
4961;SDS011;2496;52.468;13.342;2023-01-23T09:29:01;32.63;;;18.10;;
4961;SDS011;2496;52.468;13.342;2023-01-23T09:31:27;33.83;;;18.10;;
4961;SDS011;2496;52.468;13.342;2023-01-23T09:33:54;34.50;;;18.17;;
4961;SDS011;2496;52.468;13.342;2023-01-23T09:36:21;33.70;;;17.80;;
4961;SDS011;2496;52.468;13.342;2023-01-23T09:38:49;38.77;;;19.87;;
4961;SDS011;2496;52.468;13.342;2023-01-23T09:41:16;32.63;;;19.03;;
4961;SDS011;2496;52.468;13.342;2023-01-23T09:43:49;36.57;;;17.90;;
4961;SDS011;2496;52.468;13.342;2023-01-23T09:46:25;30.93;;;16.93;;
4961;SDS011;2496;52.468;13.342;2023-01-23T09:48:58;36.23;;;16.97;;
4961;SDS011;2496;52.468;13.342;2023-01-23T09:51:30;31.07;;;17.50;;
4961;SDS011;2496;52.468;13.342;2023-01-23T09:54:13;35.40;;;19.07;;
4961;SDS011;2496;52.468;13.342;2023-01-23T09:56:45;31.67;;;16.87;;
4961;SDS011;2496;52.468;13.342;2023-01-23T09:59:15;31.60;;;16.13;;
4961;SDS011;2496;52.468;13.342;2023-01-23T10:01:51;32.07;;;16.63;;
4961;SDS011;2496;52.468;13.342;2023-01-23T10:04:18;32.40;;;16.77;;
4961;SDS011;2496;52.468;13.342;2023-01-23T10:06:53;36.97;;;18.57;;
4961;SDS011;2496;52.468;13.342;2023-01-23T10:09:40;31.87;;;17.80;;
4961;SDS011;2496;52.468;13.342;2023-01-23T10:12:16;30.33;;;17.30;;
4961;SDS011;2496;52.468;13.342;2023-01-23T10:15:01;35.30;;;17.87;;
4961;SDS011;2496;52.468;13.342;2023-01-23T10:17:40;32.50;;;18.43;;
4961;SDS011;2496;52.468;13.342;2023-01-23T10:20:16;32.03;;;18.77;;
4961;SDS011;2496;52.468;13.342;2023-01-23T10:23:03;34.10;;;18.70;;
4961;SDS011;2496;52.468;13.342;2023-01-23T10:25:37;33.13;;;17.00;;
4961;SDS011;2496;52.468;13.342;2023-01-23T10:31:02;29.70;;;18.30;;
4961;SDS011;2496;52.468;13.342;2023-01-23T10:33:37;35.93;;;18.60;;
4961;SDS011;2496;52.468;13.342;2023-01-23T10:36:12;33.63;;;17.93;;
4961;SDS011;2496;52.468;13.342;2023-01-23T10:38:47;30.80;;;18.37;;
4961;SDS011;2496;52.468;13.342;2023-01-23T10:41:20;34.57;;;18.37;;
4961;SDS011;2496;52.468;13.342;2023-01-23T10:43:48;38.67;;;17.80;;
4961;SDS011;2496;52.468;13.342;2023-01-23T10:46:16;40.40;;;18.97;;
4961;SDS011;2496;52.468;13.342;2023-01-23T10:48:46;33.90;;;18.17;;
4961;SDS011;2496;52.468;13.342;2023-01-23T10:51:33;32.03;;;17.47;;
4961;SDS011;2496;52.468;13.342;2023-01-23T10:54:12;36.67;;;17.90;;
4961;SDS011;2496;52.468;13.342;2023-01-23T10:56:47;39.47;;;19.10;;
4961;SDS011;2496;52.468;13.342;2023-01-23T10:59:21;38.00;;;18.97;;
4961;SDS011;2496;52.468;13.342;2023-01-23T11:01:53;33.80;;;19.40;;
4961;SDS011;2496;52.468;13.342;2023-01-23T11:04:25;34.57;;;20.00;;
4961;SDS011;2496;52.468;13.342;2023-01-23T11:07:00;44.80;;;19.60;;
4961;SDS011;2496;52.468;13.342;2023-01-23T11:09:29;32.37;;;17.03;;
4961;SDS011;2496;52.468;13.342;2023-01-23T11:12:00;33.17;;;16.73;;
4961;SDS011;2496;52.468;13.342;2023-01-23T11:14:29;30.27;;;18.57;;
4961;SDS011;2496;52.468;13.342;2023-01-23T11:17:00;30.57;;;16.50;;
4961;SDS011;2496;52.468;13.342;2023-01-23T11:19:31;31.73;;;18.10;;
4961;SDS011;2496;52.468;13.342;2023-01-23T11:21:59;30.57;;;18.80;;
4961;SDS011;2496;52.468;13.342;2023-01-23T11:24:30;34.47;;;17.73;;
4961;SDS011;2496;52.468;13.342;2023-01-23T11:27:00;37.20;;;18.00;;
4961;SDS011;2496;52.468;13.342;2023-01-23T11:29:28;38.20;;;18.00;;
4961;SDS011;2496;52.468;13.342;2023-01-23T11:32:09;31.53;;;18.80;;
4961;SDS011;2496;52.468;13.342;2023-01-23T11:34:42;33.73;;;18.53;;
4961;SDS011;2496;52.468;13.342;2023-01-23T11:37:16;29.30;;;18.40;;
4961;SDS011;2496;52.468;13.342;2023-01-23T11:39:47;32.37;;;18.13;;
4961;SDS011;2496;52.468;13.342;2023-01-23T11:42:18;31.00;;;18.40;;
4961;SDS011;2496;52.468;13.342;2023-01-23T11:44:45;33.63;;;18.77;;
4961;SDS011;2496;52.468;13.342;2023-01-23T11:50:24;34.63;;;18.10;;
4961;SDS011;2496;52.468;13.342;2023-01-23T11:53:03;30.07;;;16.83;;
4961;SDS011;2496;52.468;13.342;2023-01-23T11:55:41;36.30;;;19.00;;
4961;SDS011;2496;52.468;13.342;2023-01-23T11:58:43;32.40;;;18.23;;
4961;SDS011;2496;52.468;13.342;2023-01-23T12:01:27;36.53;;;18.60;;
4961;SDS011;2496;52.468;13.342;2023-01-23T12:07:18;35.17;;;17.47;;
4961;SDS011;2496;52.468;13.342;2023-01-23T12:09:50;38.73;;;17.23;;
4961;SDS011;2496;52.468;13.342;2023-01-23T12:12:31;35.77;;;19.00;;
4961;SDS011;2496;52.468;13.342;2023-01-23T12:15:18;33.67;;;18.43;;
4961;SDS011;2496;52.468;13.342;2023-01-23T12:17:56;33.17;;;17.40;;
4961;SDS011;2496;52.468;13.342;2023-01-23T12:20:32;34.30;;;18.40;;
4961;SDS011;2496;52.468;13.342;2023-01-23T12:23:24;38.77;;;20.30;;
4961;SDS011;2496;52.468;13.342;2023-01-23T12:26:02;33.63;;;18.47;;
4961;SDS011;2496;52.468;13.342;2023-01-23T12:28:46;33.73;;;16.33;;
4961;SDS011;2496;52.468;13.342;2023-01-23T12:31:27;34.10;;;16.80;;
4961;SDS011;2496;52.468;13.342;2023-01-23T12:34:15;27.43;;;16.37;;
4961;SDS011;2496;52.468;13.342;2023-01-23T12:37:00;33.47;;;17.17;;
4961;SDS011;2496;52.468;13.342;2023-01-23T12:39:44;24.90;;;15.40;;
4961;SDS011;2496;52.468;13.342;2023-01-23T12:42:22;25.90;;;15.33;;
4961;SDS011;2496;52.468;13.342;2023-01-23T12:44:53;34.23;;;16.77;;
4961;SDS011;2496;52.468;13.342;2023-01-23T12:47:26;24.13;;;15.80;;
4961;SDS011;2496;52.468;13.342;2023-01-23T12:49:59;23.37;;;14.60;;
4961;SDS011;2496;52.468;13.342;2023-01-23T12:52:32;31.20;;;15.93;;
4961;SDS011;2496;52.468;13.342;2023-01-23T12:55:10;29.90;;;16.07;;
4961;SDS011;2496;52.468;13.342;2023-01-23T12:57:42;23.07;;;14.47;;
4961;SDS011;2496;52.468;13.342;2023-01-23T13:00:18;20.03;;;12.63;;
4961;SDS011;2496;52.468;13.342;2023-01-23T13:03:17;28.80;;;15.67;;
4961;SDS011;2496;52.468;13.342;2023-01-23T13:06:02;23.60;;;13.87;;
4961;SDS011;2496;52.468;13.342;2023-01-23T13:08:43;27.13;;;14.77;;
4961;SDS011;2496;52.468;13.342;2023-01-23T13:11:18;25.00;;;15.27;;
4961;SDS011;2496;52.468;13.342;2023-01-23T13:14:14;24.63;;;14.00;;
4961;SDS011;2496;52.468;13.342;2023-01-23T13:16:44;20.10;;;12.03;;
4961;SDS011;2496;52.468;13.342;2023-01-23T13:19:18;31.30;;;12.13;;
4961;SDS011;2496;52.468;13.342;2023-01-23T13:22:12;23.93;;;13.90;;
4961;SDS011;2496;52.468;13.342;2023-01-23T13:24:47;24.83;;;12.97;;
4961;SDS011;2496;52.468;13.342;2023-01-23T13:27:40;22.83;;;13.47;;
4961;SDS011;2496;52.468;13.342;2023-01-23T13:36:29;20.13;;;11.40;;
4961;SDS011;2496;52.468;13.342;2023-01-23T13:39:04;23.10;;;12.10;;
4961;SDS011;2496;52.468;13.342;2023-01-23T13:41:47;35.70;;;13.73;;
4961;SDS011;2496;52.468;13.342;2023-01-23T13:44:18;20.83;;;12.90;;
4961;SDS011;2496;52.468;13.342;2023-01-23T13:46:59;24.30;;;12.70;;
4961;SDS011;2496;52.468;13.342;2023-01-23T13:49:57;20.50;;;12.17;;
4961;SDS011;2496;52.468;13.342;2023-01-23T13:52:30;29.37;;;10.80;;
4961;SDS011;2496;52.468;13.342;2023-01-23T13:55:21;22.60;;;12.87;;
4961;SDS011;2496;52.468;13.342;2023-01-23T13:58:09;27.80;;;12.10;;
4961;SDS011;2496;52.468;13.342;2023-01-23T14:00:39;20.60;;;10.73;;
4961;SDS011;2496;52.468;13.342;2023-01-23T14:03:30;24.30;;;11.93;;
4961;SDS011;2496;52.468;13.342;2023-01-23T14:06:16;16.93;;;11.20;;
4961;SDS011;2496;52.468;13.342;2023-01-23T14:08:47;23.73;;;11.20;;
4961;SDS011;2496;52.468;13.342;2023-01-23T14:11:17;19.60;;;10.40;;
4961;SDS011;2496;52.468;13.342;2023-01-23T14:13:47;24.47;;;11.63;;
4961;SDS011;2496;52.468;13.342;2023-01-23T14:16:17;22.40;;;10.87;;
4961;SDS011;2496;52.468;13.342;2023-01-23T14:18:48;18.77;;;11.03;;
4961;SDS011;2496;52.468;13.342;2023-01-23T14:21:19;21.57;;;11.33;;
4961;SDS011;2496;52.468;13.342;2023-01-23T14:23:48;18.73;;;9.67;;
4961;SDS011;2496;52.468;13.342;2023-01-23T14:26:16;17.23;;;9.53;;
4961;SDS011;2496;52.468;13.342;2023-01-23T14:28:53;19.30;;;10.60;;
4961;SDS011;2496;52.468;13.342;2023-01-23T14:31:24;22.07;;;12.40;;
4961;SDS011;2496;52.468;13.342;2023-01-23T14:33:59;15.83;;;10.77;;
4961;SDS011;2496;52.468;13.342;2023-01-23T14:36:30;17.83;;;10.77;;
4961;SDS011;2496;52.468;13.342;2023-01-23T14:38:58;17.23;;;10.37;;
4961;SDS011;2496;52.468;13.342;2023-01-23T14:41:28;18.70;;;11.63;;
4961;SDS011;2496;52.468;13.342;2023-01-23T14:43:57;20.60;;;12.60;;
4961;SDS011;2496;52.468;13.342;2023-01-23T14:46:32;21.53;;;13.07;;
4961;SDS011;2496;52.468;13.342;2023-01-23T14:49:02;22.60;;;12.33;;
4961;SDS011;2496;52.468;13.342;2023-01-23T14:51:32;23.23;;;12.23;;
4961;SDS011;2496;52.468;13.342;2023-01-23T14:54:01;23.93;;;13.70;;
4961;SDS011;2496;52.468;13.342;2023-01-23T14:56:30;25.60;;;13.50;;
4961;SDS011;2496;52.468;13.342;2023-01-23T14:59:00;23.27;;;12.63;;
4961;SDS011;2496;52.468;13.342;2023-01-23T15:01:28;20.20;;;11.93;;
4961;SDS011;2496;52.468;13.342;2023-01-23T15:03:58;18.90;;;10.50;;
4961;SDS011;2496;52.468;13.342;2023-01-23T15:06:27;19.43;;;11.70;;
4961;SDS011;2496;52.468;13.342;2023-01-23T15:09:03;23.17;;;12.30;;
4961;SDS011;2496;52.468;13.342;2023-01-23T15:11:33;18.20;;;10.33;;
4961;SDS011;2496;52.468;13.342;2023-01-23T15:14:00;18.00;;;11.13;;
4961;SDS011;2496;52.468;13.342;2023-01-23T15:16:29;17.43;;;10.57;;